createdAt,value
2019-02-12T00:01:11.213Z,7.58
2019-02-12T00:03:38.837Z,7.67
2019-02-12T00:06:05.910Z,7.65
2019-02-12T00:08:33.365Z,6.90
2019-02-12T00:11:00.540Z,7.78
2019-02-12T00:13:27.565Z,8.63
2019-02-12T00:15:54.654Z,6.95
2019-02-12T00:18:22.341Z,7.37
2019-02-12T00:20:49.629Z,7.37
2019-02-12T00:23:17.129Z,6.40
2019-02-12T00:25:44.725Z,6.33
2019-02-12T00:28:11.526Z,6.40
2019-02-12T00:30:39.202Z,6.20
2019-02-12T00:33:06.897Z,5.83
2019-02-12T00:35:34.345Z,5.50
2019-02-12T00:38:01.417Z,6.40
2019-02-12T00:40:28.737Z,7.08
2019-02-12T00:42:55.807Z,6.10
2019-02-12T00:45:23.689Z,6.22
2019-02-12T00:47:51.273Z,6.47
2019-02-12T00:50:18.599Z,6.10
2019-02-12T00:52:45.944Z,7.72
2019-02-12T00:55:13.300Z,5.40
2019-02-12T00:57:40.501Z,7.00
2019-02-12T01:00:09.089Z,6.12
2019-02-12T01:02:36.626Z,8.05
2019-02-12T01:05:04.514Z,6.62
2019-02-12T01:07:32.033Z,6.15
2019-02-12T01:09:59.633Z,6.58
2019-02-12T01:12:27.046Z,7.17
2019-02-12T01:14:54.414Z,5.85
2019-02-12T01:17:21.713Z,6.40
2019-02-12T01:19:49.173Z,6.65
2019-02-12T01:22:16.525Z,6.10
2019-02-12T01:24:43.865Z,6.33
2019-02-12T01:27:11.440Z,5.62
2019-02-12T01:29:39.056Z,6.70
2019-02-12T01:32:06.402Z,6.85
2019-02-12T01:34:33.769Z,5.97
2019-02-12T01:37:01.091Z,6.72
2019-02-12T01:39:28.413Z,6.83
2019-02-12T01:41:56.232Z,7.03
2019-02-12T01:44:23.546Z,6.45
2019-02-12T01:46:50.634Z,6.62
2019-02-12T01:49:17.962Z,6.50
2019-02-12T01:51:45.949Z,6.75
2019-02-12T01:54:13.513Z,6.85
2019-02-12T01:56:40.837Z,5.95
2019-02-12T01:59:08.214Z,6.28
2019-02-12T02:01:35.566Z,6.25
2019-02-12T02:04:02.942Z,5.80
2019-02-12T02:06:30.357Z,5.45
2019-02-12T02:08:58.049Z,5.55
2019-02-12T02:11:25.238Z,6.92
2019-02-12T02:13:52.284Z,6.62
2019-02-12T02:16:19.373Z,6.87
2019-02-12T02:18:46.961Z,5.67
2019-02-12T02:21:13.777Z,6.75
2019-02-12T02:23:41.545Z,7.17
2019-02-12T02:26:08.980Z,5.53
2019-02-12T02:28:36.973Z,5.00
2019-02-12T02:31:04.323Z,4.90
2019-02-12T02:33:31.416Z,6.72
2019-02-12T02:35:58.717Z,4.95
2019-02-12T02:38:26.158Z,4.60
2019-02-12T02:40:52.961Z,4.97
2019-02-12T02:43:20.137Z,4.70
2019-02-12T02:45:47.745Z,4.80
2019-02-12T02:48:15.208Z,4.90
2019-02-12T02:50:42.271Z,4.50
2019-02-12T02:53:09.341Z,4.40
2019-02-12T02:55:36.925Z,3.95
2019-02-12T02:58:04.001Z,4.85
2019-02-12T03:00:31.370Z,4.15
2019-02-12T03:02:58.958Z,3.75
2019-02-12T03:05:26.575Z,4.00
2019-02-12T03:07:53.881Z,3.77
2019-02-12T03:10:21.559Z,4.97
2019-02-12T03:12:48.629Z,4.30
2019-02-12T03:15:16.153Z,4.55
2019-02-12T03:17:43.490Z,3.15
2019-02-12T03:20:10.770Z,3.77
2019-02-12T03:22:38.481Z,3.67
2019-02-12T03:25:05.642Z,3.35
2019-02-12T03:27:32.699Z,4.25
2019-02-12T03:30:00.326Z,3.05
2019-02-12T03:32:27.595Z,3.25
2019-02-12T03:34:55.201Z,4.03
2019-02-12T03:37:22.275Z,3.22
2019-02-12T03:39:49.859Z,3.30
2019-02-12T03:42:16.930Z,3.80
2019-02-12T03:44:44.607Z,3.70
2019-02-12T03:47:11.661Z,4.40
2019-02-12T03:49:39.259Z,4.22
2019-02-12T03:52:12.602Z,4.97
2019-02-12T03:54:36.570Z,3.20
2019-02-12T03:57:03.581Z,2.60
2019-02-12T03:59:31.426Z,3.40
2019-02-12T04:01:58.621Z,3.15
2019-02-12T04:04:25.781Z,3.27
2019-02-12T04:06:53.386Z,3.00
2019-02-12T04:09:21.093Z,3.17
2019-02-12T04:11:48.157Z,3.58
2019-02-12T04:14:15.234Z,3.10
2019-02-12T04:16:42.313Z,3.15
2019-02-12T04:19:09.386Z,2.70
2019-02-12T04:21:37.000Z,2.70
2019-02-12T04:24:04.685Z,3.27
2019-02-12T04:26:32.687Z,4.37
2019-02-12T04:29:00.296Z,2.80
2019-02-12T04:31:28.186Z,4.00
2019-02-12T04:33:56.021Z,4.85
2019-02-12T04:36:23.389Z,3.05
2019-02-12T04:38:50.962Z,3.25
2019-02-12T04:41:18.645Z,3.35
2019-02-12T04:43:45.989Z,3.10
2019-02-12T04:46:13.072Z,3.55
2019-02-12T04:48:40.481Z,3.00
2019-02-12T04:51:08.117Z,3.02
2019-02-12T04:53:35.811Z,3.52
2019-02-12T04:56:03.247Z,3.60
2019-02-12T04:58:30.339Z,3.25
2019-02-12T05:00:59.335Z,3.42
2019-02-12T05:03:26.401Z,3.10
2019-02-12T05:05:53.838Z,3.20
2019-02-12T05:08:21.185Z,4.10
2019-02-12T05:10:55.889Z,3.85
2019-02-12T05:13:23.218Z,4.45
2019-02-12T05:15:50.289Z,4.22
2019-02-12T05:18:17.619Z,3.65
2019-02-12T05:20:45.259Z,3.72
2019-02-12T05:23:12.830Z,3.80
2019-02-12T05:25:39.733Z,3.87
2019-02-12T05:28:07.268Z,3.92
2019-02-12T05:30:34.914Z,3.50
2019-02-12T05:33:02.273Z,3.25
2019-02-12T05:35:30.177Z,3.58
2019-02-12T05:37:57.539Z,3.77
2019-02-12T05:40:24.601Z,5.30
2019-02-12T05:42:51.422Z,4.12
2019-02-12T05:45:18.769Z,4.20
2019-02-12T05:47:45.697Z,4.10
2019-02-12T05:50:12.979Z,4.25
2019-02-12T05:52:40.418Z,4.08
2019-02-12T05:55:07.698Z,3.65
2019-02-12T05:57:35.380Z,4.12
2019-02-12T06:00:02.567Z,3.85
2019-02-12T06:02:29.903Z,3.98
2019-02-12T06:04:57.511Z,4.50
2019-02-12T06:07:25.121Z,3.92
2019-02-12T06:09:52.742Z,4.40
2019-02-12T06:12:20.781Z,4.10
2019-02-12T06:14:48.193Z,4.55
2019-02-12T06:17:15.532Z,5.37
2019-02-12T06:19:42.714Z,4.72
2019-02-12T06:22:09.778Z,6.00
2019-02-12T06:24:36.689Z,4.95
2019-02-12T06:27:03.971Z,4.33
2019-02-12T06:29:31.873Z,4.17
2019-02-12T06:31:59.034Z,4.15
2019-02-12T06:34:26.626Z,3.55
2019-02-12T06:36:53.703Z,3.55
2019-02-12T06:39:21.277Z,3.90
2019-02-12T06:41:49.081Z,5.05
2019-02-12T06:44:16.409Z,4.47
2019-02-12T06:46:43.594Z,4.30
2019-02-12T06:49:11.420Z,4.65
2019-02-12T06:51:38.751Z,4.95
2019-02-12T06:54:06.848Z,3.90
2019-02-12T06:56:33.910Z,4.80
2019-02-12T06:59:01.277Z,3.60
2019-02-12T07:01:28.896Z,4.15
2019-02-12T07:03:58.409Z,3.83
2019-02-12T07:06:52.472Z,3.25
2019-02-12T07:09:30.031Z,3.00
2019-02-12T07:12:21.525Z,3.20
2019-02-12T07:14:55.945Z,3.55
2019-02-12T07:18:04.225Z,3.60
2019-02-12T07:21:19.489Z,3.75
2019-02-12T07:24:44.155Z,2.90
2019-02-12T07:28:05.579Z,3.92
2019-02-12T07:31:29.891Z,3.20
2019-02-12T07:34:43.713Z,3.65
2019-02-12T07:37:35.575Z,3.33
2019-02-12T07:40:39.263Z,3.17
2019-02-12T07:43:41.730Z,4.15
2019-02-12T07:46:48.882Z,3.60
2019-02-12T07:49:56.395Z,3.40
2019-02-12T07:52:38.777Z,4.15
2019-02-12T07:55:47.290Z,3.85
2019-02-12T07:58:44.199Z,4.30
2019-02-12T08:01:43.650Z,4.45
2019-02-12T08:04:35.906Z,3.80
2019-02-12T08:07:47.052Z,3.50
2019-02-12T08:10:34.830Z,3.75
2019-02-12T08:13:28.374Z,4.72
2019-02-12T08:16:05.940Z,3.90
2019-02-12T08:19:09.723Z,4.50
2019-02-12T08:22:09.794Z,4.60
2019-02-12T08:25:01.049Z,4.05
2019-02-12T08:27:53.723Z,2.77
2019-02-12T08:30:40.540Z,4.25
2019-02-12T08:33:41.027Z,3.75
2019-02-12T08:36:34.463Z,3.85
2019-02-12T08:39:45.510Z,3.65
2019-02-12T08:42:47.685Z,3.83
2019-02-12T08:45:38.968Z,3.83
2019-02-12T08:49:00.600Z,3.77
2019-02-12T08:52:11.722Z,4.25
2019-02-12T08:55:27.106Z,3.72
2019-02-12T08:58:37.629Z,4.05
2019-02-12T09:01:45.070Z,3.42
2019-02-12T09:04:49.881Z,3.65
2019-02-12T09:07:29.563Z,3.65
2019-02-12T09:10:52.915Z,3.83
2019-02-12T09:13:54.502Z,4.00
2019-02-12T09:17:15.037Z,3.72
2019-02-12T09:20:25.173Z,3.42
2019-02-12T09:24:00.430Z,3.92
2019-02-12T09:27:02.541Z,3.62
2019-02-12T09:30:18.024Z,4.30
2019-02-12T09:33:08.265Z,4.10
2019-02-12T09:36:19.474Z,3.70
2019-02-12T09:39:26.317Z,4.72
2019-02-12T09:42:12.384Z,4.22
2019-02-12T09:45:32.782Z,4.20
2019-02-12T09:48:45.405Z,3.60
2019-02-12T09:51:29.989Z,4.40
2019-02-12T09:54:28.534Z,4.33
2019-02-12T09:57:29.014Z,4.10
2019-02-12T10:00:30.544Z,3.20
2019-02-12T10:03:33.182Z,3.87
2019-02-12T10:06:44.385Z,3.90
2019-02-12T10:09:45.965Z,4.92
2019-02-12T10:12:38.707Z,3.90
2019-02-12T10:15:52.982Z,4.87
2019-02-12T10:19:17.353Z,4.22
2019-02-12T10:22:20.332Z,4.40
2019-02-12T10:25:21.101Z,3.90
2019-02-12T10:28:08.717Z,3.62
2019-02-12T10:30:54.085Z,4.67
2019-02-12T10:33:21.443Z,3.20
2019-02-12T10:35:49.041Z,3.87
2019-02-12T10:38:16.478Z,3.33
2019-02-12T10:40:43.481Z,4.00
2019-02-12T10:43:11.258Z,3.22
2019-02-12T10:45:38.770Z,3.70
2019-02-12T10:48:07.317Z,4.20
2019-02-12T10:50:34.758Z,3.60
2019-02-12T10:53:01.842Z,3.40
2019-02-12T10:55:29.269Z,3.75
2019-02-12T10:57:56.874Z,3.00
2019-02-12T11:00:24.814Z,3.80
2019-02-12T11:02:52.714Z,3.85
2019-02-12T11:05:20.450Z,4.25
2019-02-12T11:07:47.994Z,4.03
2019-02-12T11:10:15.419Z,3.77
2019-02-12T11:12:42.489Z,3.83
2019-02-12T11:15:09.832Z,3.45
2019-02-12T11:17:38.138Z,3.95
2019-02-12T11:20:05.741Z,4.25
2019-02-12T11:22:32.998Z,4.40
2019-02-12T11:25:00.873Z,4.33
2019-02-12T11:27:28.105Z,3.65
2019-02-12T11:29:56.059Z,3.42
2019-02-12T11:32:23.406Z,3.55
2019-02-12T11:34:50.798Z,3.80
2019-02-12T11:37:18.513Z,3.55
2019-02-12T11:39:46.109Z,4.15
2019-02-12T11:42:13.854Z,4.10
2019-02-12T11:44:41.500Z,4.58
2019-02-12T11:47:08.950Z,4.37
2019-02-12T11:49:36.911Z,4.42
2019-02-12T11:52:04.401Z,4.15
2019-02-12T11:54:32.042Z,3.80
2019-02-12T11:56:59.093Z,4.15
2019-02-12T11:59:26.010Z,4.22
2019-02-12T12:01:53.686Z,3.42
2019-02-12T12:04:21.429Z,4.67
2019-02-12T12:06:48.774Z,4.58
2019-02-12T12:09:16.801Z,4.25
2019-02-12T12:11:44.629Z,4.12
2019-02-12T12:14:12.448Z,4.20
2019-02-12T12:16:39.541Z,4.70
2019-02-12T12:19:06.753Z,4.40
2019-02-12T12:21:34.449Z,4.55
2019-02-12T12:24:02.310Z,5.28
2019-02-12T12:26:29.693Z,5.00
2019-02-12T12:28:57.723Z,4.00
2019-02-12T12:31:25.134Z,4.30
2019-02-12T12:33:53.143Z,4.50
2019-02-12T12:36:20.823Z,4.25
2019-02-12T12:38:48.820Z,4.70
2019-02-12T12:41:16.501Z,4.80
2019-02-12T12:43:44.206Z,5.25
2019-02-12T12:46:12.057Z,5.20
2019-02-12T12:48:40.084Z,5.28
2019-02-12T12:51:08.341Z,5.35
2019-02-12T12:53:36.561Z,6.22
2019-02-12T12:56:03.670Z,5.37
2019-02-12T12:58:31.010Z,4.00
2019-02-12T13:00:58.263Z,4.35
2019-02-12T13:03:25.950Z,4.90
2019-02-12T13:05:53.623Z,5.95
2019-02-12T13:08:21.705Z,4.70
2019-02-12T13:10:49.421Z,4.90
2019-02-12T13:13:17.032Z,4.42
2019-02-12T13:15:44.723Z,4.80
2019-02-12T13:18:12.173Z,3.95
2019-02-12T13:20:39.568Z,5.30
2019-02-12T13:23:07.171Z,4.03
2019-02-12T13:25:34.521Z,4.45
2019-02-12T13:28:01.833Z,4.53
2019-02-12T13:30:29.313Z,3.92
2019-02-12T13:32:56.834Z,5.20
2019-02-12T13:35:25.009Z,4.40
2019-02-12T13:37:52.430Z,4.30
2019-02-12T13:40:20.061Z,4.22
2019-02-12T13:42:47.504Z,5.55
2019-02-12T13:45:14.521Z,5.12
2019-02-12T13:47:42.750Z,5.12
2019-02-12T13:50:10.065Z,5.00
2019-02-12T13:52:38.117Z,5.05
2019-02-12T13:55:05.929Z,4.30
2019-02-12T13:57:33.383Z,4.37
2019-02-12T14:00:01.007Z,5.28
2019-02-12T14:02:28.607Z,4.20
2019-02-12T14:04:55.962Z,5.08
2019-02-12T14:07:23.553Z,4.22
2019-02-12T14:09:51.175Z,3.80
2019-02-12T14:12:18.093Z,4.03
2019-02-12T14:14:45.065Z,4.42
2019-02-12T14:17:12.162Z,4.15
2019-02-12T14:19:39.479Z,4.92
2019-02-12T14:22:06.537Z,3.85
2019-02-12T14:24:33.621Z,4.50
2019-02-12T14:27:00.942Z,3.75
2019-02-12T14:29:28.730Z,3.62
2019-02-12T14:31:56.673Z,4.05
2019-02-12T14:34:24.565Z,4.00
2019-02-12T14:36:52.694Z,3.77
2019-02-12T14:39:19.513Z,3.98
2019-02-12T14:41:47.026Z,3.90
2019-02-12T14:44:15.134Z,4.35
2019-02-12T14:46:43.109Z,4.00
2019-02-12T14:49:10.981Z,3.62
2019-02-12T14:51:38.709Z,3.58
2019-02-12T14:54:07.269Z,4.08
2019-02-12T14:56:34.845Z,3.65
2019-02-12T14:59:02.173Z,3.15
2019-02-12T15:01:30.157Z,3.35
2019-02-12T15:03:57.502Z,3.25
2019-02-12T15:06:25.139Z,3.58
2019-02-12T15:08:52.733Z,4.05
2019-02-12T15:11:20.466Z,3.85
2019-02-12T15:13:47.789Z,3.83
2019-02-12T15:16:15.406Z,3.62
2019-02-12T15:18:43.272Z,3.30
2019-02-12T15:21:10.837Z,3.25
2019-02-12T15:23:38.592Z,3.12
2019-02-12T15:26:06.569Z,3.10
2019-02-12T15:28:33.721Z,3.83
2019-02-12T15:31:01.312Z,3.30
2019-02-12T15:33:28.636Z,3.30
2019-02-12T15:35:55.456Z,3.15
2019-02-12T15:38:22.549Z,3.20
2019-02-12T15:40:50.372Z,4.87
2019-02-12T15:43:18.025Z,3.50
2019-02-12T15:45:45.650Z,3.98
2019-02-12T15:48:13.015Z,2.83
2019-02-12T15:50:44.156Z,3.05
2019-02-12T15:53:11.213Z,3.95
2019-02-12T15:55:42.217Z,3.75
2019-02-12T15:58:08.845Z,3.20
2019-02-12T16:00:36.277Z,3.40
2019-02-12T16:03:04.025Z,3.12
2019-02-12T16:05:32.899Z,3.05
2019-02-12T16:08:01.141Z,2.92
2019-02-12T16:10:29.352Z,3.30
2019-02-12T16:12:57.171Z,3.83
2019-02-12T16:15:24.858Z,2.90
2019-02-12T16:17:52.265Z,4.03
2019-02-12T16:20:22.744Z,3.00
2019-02-12T16:22:51.261Z,3.65
2019-02-12T16:25:18.708Z,2.77
2019-02-12T16:27:46.317Z,3.55
2019-02-12T16:30:14.969Z,3.75
2019-02-12T16:32:42.045Z,2.90
2019-02-12T16:35:10.395Z,2.87
2019-02-12T16:37:38.105Z,3.20
2019-02-12T16:40:06.897Z,3.55
2019-02-12T16:42:34.516Z,3.65
2019-02-12T16:45:02.602Z,3.62
2019-02-12T16:47:30.464Z,3.90
2019-02-12T16:49:59.642Z,5.15
2019-02-12T16:52:27.303Z,3.60
2019-02-12T16:54:54.454Z,3.90
2019-02-12T16:57:21.972Z,3.33
2019-02-12T16:59:49.604Z,2.92
2019-02-12T17:02:17.466Z,2.80
2019-02-12T17:04:44.963Z,3.70
2019-02-12T17:07:12.633Z,3.75
2019-02-12T17:09:40.706Z,3.70
2019-02-12T17:12:08.774Z,3.50
2019-02-12T17:14:36.433Z,3.92
2019-02-12T17:17:04.303Z,3.50
2019-02-12T17:19:31.737Z,3.17
2019-02-12T17:22:00.040Z,3.60
2019-02-12T17:24:27.680Z,3.10
2019-02-12T17:26:55.824Z,4.05
2019-02-12T17:29:23.602Z,3.50
2019-02-12T17:31:51.247Z,3.20
2019-02-12T17:34:19.106Z,3.37
2019-02-12T17:36:46.968Z,3.67
2019-02-12T17:39:14.821Z,3.05
2019-02-12T17:41:42.413Z,4.00
2019-02-12T17:44:10.623Z,3.58
2019-02-12T17:46:38.509Z,2.95
2019-02-12T17:49:06.086Z,3.17
2019-02-12T17:51:33.297Z,4.17
2019-02-12T17:54:01.056Z,2.80
2019-02-12T17:56:28.745Z,4.00
2019-02-12T17:58:56.485Z,3.25
2019-02-12T18:01:24.221Z,2.83
2019-02-12T18:03:51.930Z,3.50
2019-02-12T18:06:19.461Z,2.75
2019-02-12T18:08:47.077Z,2.98
2019-02-12T18:11:14.674Z,3.33
2019-02-12T18:13:42.509Z,3.27
2019-02-12T18:16:09.690Z,4.08
2019-02-12T18:18:36.837Z,2.92
2019-02-12T18:21:04.374Z,3.22
2019-02-12T18:23:32.206Z,2.50
2019-02-12T18:25:59.369Z,2.45
2019-02-12T18:28:26.914Z,2.70
2019-02-12T18:30:54.661Z,3.45
2019-02-12T18:33:22.719Z,2.85
2019-02-12T18:35:50.649Z,2.37
2019-02-12T18:38:17.988Z,3.30
2019-02-12T18:40:45.450Z,2.45
2019-02-12T18:43:13.346Z,3.55
2019-02-12T18:45:40.437Z,2.60
2019-02-12T18:48:08.169Z,2.90
2019-02-12T18:50:35.781Z,3.52
2019-02-12T18:53:03.233Z,3.40
2019-02-12T18:55:31.045Z,3.37
2019-02-12T18:57:59.478Z,3.20
2019-02-12T19:00:26.806Z,2.87
2019-02-12T19:02:54.249Z,3.35
2019-02-12T19:05:22.266Z,2.98
2019-02-12T19:07:49.749Z,2.80
2019-02-12T19:10:21.316Z,3.30
2019-02-12T19:12:49.125Z,3.02
2019-02-12T19:15:15.991Z,3.35
2019-02-12T19:17:45.862Z,3.15
2019-02-12T19:20:13.010Z,3.70
2019-02-12T19:22:40.836Z,3.10
2019-02-12T19:25:08.283Z,3.80
2019-02-12T19:27:35.937Z,4.47
2019-02-12T19:30:03.607Z,4.12
2019-02-12T19:32:31.221Z,2.90
2019-02-12T19:34:58.810Z,3.00
2019-02-12T19:37:26.511Z,3.52
2019-02-12T19:39:54.162Z,3.10
2019-02-12T19:42:21.770Z,3.30
2019-02-12T19:44:49.082Z,2.75
2019-02-12T19:47:16.537Z,2.70
2019-02-12T19:49:44.117Z,3.77
2019-02-12T19:52:11.577Z,4.17
2019-02-12T19:54:39.415Z,3.70
2019-02-12T19:57:07.138Z,3.25
2019-02-12T19:59:34.740Z,3.52
2019-02-12T20:02:02.577Z,3.17
2019-02-12T20:04:29.928Z,3.10
2019-02-12T20:06:57.525Z,2.90
2019-02-12T20:09:24.987Z,2.67
2019-02-12T20:11:52.926Z,3.70
2019-02-12T20:14:20.257Z,3.02
2019-02-12T20:16:48.286Z,3.40
2019-02-12T20:19:15.616Z,3.17
2019-02-12T20:21:43.781Z,3.90
2019-02-12T20:24:11.325Z,2.47
2019-02-12T20:26:39.053Z,2.77
2019-02-12T20:29:06.666Z,3.10
2019-02-12T20:31:34.552Z,2.30
2019-02-12T20:34:01.645Z,3.47
2019-02-12T20:36:29.193Z,2.60
2019-02-12T20:38:57.141Z,3.20
2019-02-12T20:41:25.103Z,3.47
2019-02-12T20:43:52.428Z,2.70
2019-02-12T20:46:20.000Z,3.10
2019-02-12T20:48:48.213Z,3.00
2019-02-12T20:51:15.348Z,2.92
2019-02-12T20:53:42.941Z,3.60
2019-02-12T20:56:10.521Z,2.60
2019-02-12T20:58:38.245Z,2.60
2019-02-12T21:01:06.002Z,2.98
2019-02-12T21:03:33.369Z,5.22
2019-02-12T21:06:00.249Z,3.20
2019-02-12T21:08:27.892Z,2.90
2019-02-12T21:10:55.199Z,3.15
2019-02-12T21:13:22.637Z,3.50
2019-02-12T21:15:49.476Z,3.33
2019-02-12T21:18:17.437Z,3.45
2019-02-12T21:20:44.555Z,2.80
2019-02-12T21:23:12.022Z,3.20
2019-02-12T21:25:39.956Z,2.80
2019-02-12T21:28:07.311Z,3.30
2019-02-12T21:30:34.329Z,2.95
2019-02-12T21:33:01.978Z,3.47
2019-02-12T21:35:29.726Z,3.20
2019-02-12T21:37:57.423Z,2.60
2019-02-12T21:40:25.268Z,3.60
2019-02-12T21:42:53.257Z,3.30
2019-02-12T21:45:20.394Z,3.55
2019-02-12T21:47:47.721Z,3.12
2019-02-12T21:50:14.910Z,3.62
2019-02-12T21:52:42.413Z,3.37
2019-02-12T21:55:09.965Z,3.27
2019-02-12T21:57:37.499Z,3.40
2019-02-12T22:00:06.013Z,2.83
2019-02-12T22:02:33.625Z,3.45
2019-02-12T22:05:01.141Z,3.05
2019-02-12T22:07:28.821Z,5.03
2019-02-12T22:09:56.446Z,3.65
2019-02-12T22:12:24.062Z,3.67
2019-02-12T22:14:51.775Z,3.60
2019-02-12T22:17:19.693Z,3.52
2019-02-12T22:19:47.422Z,3.52
2019-02-12T22:22:15.329Z,3.33
2019-02-12T22:24:43.005Z,4.37
2019-02-12T22:27:10.638Z,3.10
2019-02-12T22:29:38.011Z,3.52
2019-02-12T22:32:05.562Z,3.80
2019-02-12T22:34:33.146Z,3.50
2019-02-12T22:37:00.205Z,5.10
2019-02-12T22:39:27.770Z,3.62
2019-02-12T22:41:55.373Z,3.55
2019-02-12T22:44:23.528Z,4.00
2019-02-12T22:46:51.146Z,3.58
2019-02-12T22:49:18.577Z,4.50
2019-02-12T22:51:46.220Z,3.85
2019-02-12T22:54:15.849Z,4.10
2019-02-12T22:56:43.169Z,4.40
2019-02-12T22:59:11.229Z,3.25
2019-02-12T23:01:39.872Z,2.90
2019-02-12T23:04:07.791Z,3.75
2019-02-12T23:06:34.897Z,2.90
2019-02-12T23:09:04.323Z,3.72
2019-02-12T23:11:31.962Z,3.15
2019-02-12T23:13:59.528Z,3.55
2019-02-12T23:16:26.733Z,4.83
2019-02-12T23:18:54.307Z,4.95
2019-02-12T23:21:21.644Z,3.92
2019-02-12T23:23:49.268Z,5.20
2019-02-12T23:26:17.601Z,17.70
2019-02-12T23:28:45.340Z,20.15
2019-02-12T23:31:13.135Z,15.90
2019-02-12T23:33:40.537Z,9.55
2019-02-12T23:36:08.155Z,9.78
2019-02-12T23:38:35.683Z,9.83
2019-02-12T23:41:02.865Z,9.83
2019-02-12T23:43:30.536Z,7.97
2019-02-12T23:45:58.122Z,5.12
2019-02-12T23:48:25.189Z,4.80
2019-02-12T23:50:52.779Z,5.53
2019-02-12T23:53:20.609Z,4.65
2019-02-12T23:55:48.303Z,4.58
2019-02-12T23:58:16.145Z,4.65
